createdAt,value
2022-10-25T00:00:21.676Z,0
2022-10-25T00:01:21.793Z,0
2022-10-25T00:02:21.884Z,0
2022-10-25T00:03:21.643Z,0
2022-10-25T00:05:21.673Z,0
2022-10-25T00:06:21.645Z,0
2022-10-25T00:07:21.680Z,0
2022-10-25T00:08:21.705Z,0
2022-10-25T00:09:21.654Z,0
2022-10-25T00:10:24.884Z,0
2022-10-25T00:11:21.685Z,0
2022-10-25T00:12:21.669Z,0
2022-10-25T00:13:21.664Z,0
2022-10-25T00:14:21.658Z,0
2022-10-25T00:15:21.670Z,0
2022-10-25T00:16:21.663Z,0
2022-10-25T00:17:21.672Z,0
2022-10-25T00:18:21.666Z,0
2022-10-25T00:19:21.661Z,0
2022-10-25T00:20:21.663Z,0
2022-10-25T00:21:21.662Z,0
2022-10-25T00:22:21.667Z,0
2022-10-25T00:23:21.663Z,0
2022-10-25T00:24:21.658Z,0
2022-10-25T00:25:21.659Z,0
2022-10-25T00:26:21.658Z,0
2022-10-25T00:27:21.667Z,0
2022-10-25T00:28:21.664Z,0
2022-10-25T00:29:21.663Z,0
2022-10-25T00:30:21.676Z,0
2022-10-25T00:31:21.662Z,0
2022-10-25T00:32:21.673Z,0
2022-10-25T00:33:21.663Z,0
2022-10-25T00:34:21.663Z,0
2022-10-25T00:35:21.661Z,0
2022-10-25T00:36:21.656Z,0
2022-10-25T00:37:21.693Z,0
2022-10-25T00:38:21.659Z,0
2022-10-25T00:39:21.657Z,0
2022-10-25T00:40:21.660Z,0
2022-10-25T00:41:21.663Z,0
2022-10-25T00:42:21.668Z,0
2022-10-25T00:43:21.659Z,0
2022-10-25T00:44:21.657Z,0
2022-10-25T00:45:21.675Z,0
2022-10-25T00:46:21.658Z,0
2022-10-25T00:47:21.668Z,0
2022-10-25T00:48:21.657Z,0
2022-10-25T00:49:21.654Z,0
2022-10-25T00:50:21.665Z,0
2022-10-25T00:51:21.704Z,0
2022-10-25T00:52:21.679Z,0
2022-10-25T00:53:21.665Z,0
2022-10-25T00:55:21.665Z,0
2022-10-25T00:56:21.666Z,0
2022-10-25T00:57:21.760Z,0
2022-10-25T00:58:21.666Z,0
2022-10-25T00:59:21.649Z,0
2022-10-25T01:00:21.697Z,0
2022-10-25T01:01:21.754Z,0
2022-10-25T01:02:21.765Z,0
2022-10-25T01:03:21.731Z,0
2022-10-25T01:04:21.649Z,0
2022-10-25T01:05:21.641Z,0
2022-10-25T01:06:21.685Z,0
2022-10-25T01:07:21.663Z,0
2022-10-25T01:08:21.646Z,0
2022-10-25T01:09:21.648Z,0
2022-10-25T01:10:21.645Z,0
2022-10-25T01:11:21.648Z,0
2022-10-25T01:12:21.665Z,0
2022-10-25T01:13:21.643Z,0
2022-10-25T01:14:21.651Z,0
2022-10-25T01:15:21.745Z,0
2022-10-25T01:16:21.640Z,0
2022-10-25T01:17:21.669Z,0
2022-10-25T01:18:21.655Z,0
2022-10-25T01:19:21.736Z,0
2022-10-25T01:20:21.661Z,0
2022-10-25T01:21:21.663Z,0
2022-10-25T01:22:21.682Z,0
2022-10-25T01:23:21.666Z,0
2022-10-25T01:24:21.660Z,0
2022-10-25T01:25:21.664Z,0
2022-10-25T01:26:21.665Z,0
2022-10-25T01:27:21.697Z,0
2022-10-25T01:28:21.670Z,0
2022-10-25T01:29:21.665Z,0
2022-10-25T01:30:21.682Z,0
2022-10-25T01:31:21.655Z,0
2022-10-25T01:32:21.686Z,0
2022-10-25T01:33:21.655Z,0
2022-10-25T01:34:21.665Z,0
2022-10-25T01:35:21.662Z,0
2022-10-25T01:36:21.667Z,0
2022-10-25T01:37:21.827Z,0
2022-10-25T01:38:21.661Z,0
2022-10-25T01:39:21.664Z,0
2022-10-25T01:40:21.657Z,0
2022-10-25T01:41:21.669Z,0
2022-10-25T01:42:21.669Z,0
2022-10-25T01:43:21.662Z,0
2022-10-25T01:44:21.665Z,0
2022-10-25T01:45:21.679Z,0
2022-10-25T01:46:21.663Z,0
2022-10-25T01:47:21.670Z,0
2022-10-25T01:48:21.670Z,0
2022-10-25T01:49:21.658Z,0
2022-10-25T01:50:21.665Z,0
2022-10-25T01:51:21.666Z,0
2022-10-25T01:52:21.669Z,0
2022-10-25T01:53:21.661Z,0
2022-10-25T01:54:21.657Z,0
2022-10-25T01:55:21.664Z,0
2022-10-25T01:56:21.662Z,0
2022-10-25T01:57:21.669Z,0
2022-10-25T01:58:21.665Z,0
2022-10-25T01:59:21.658Z,0
2022-10-25T02:00:21.684Z,0
2022-10-25T02:01:21.842Z,0
2022-10-25T02:02:21.672Z,0
2022-10-25T02:03:21.661Z,0
2022-10-25T02:04:21.661Z,0
2022-10-25T02:05:21.665Z,0
2022-10-25T02:06:21.661Z,0
2022-10-25T02:07:21.674Z,0
2022-10-25T02:08:21.653Z,0
2022-10-25T02:09:21.643Z,0
2022-10-25T02:10:21.650Z,0
2022-10-25T02:11:21.650Z,0
2022-10-25T02:12:21.664Z,0
2022-10-25T02:13:21.648Z,0
2022-10-25T02:14:21.643Z,0
2022-10-25T02:15:21.667Z,0
2022-10-25T02:16:21.641Z,0
2022-10-25T02:17:21.663Z,0
2022-10-25T02:18:21.702Z,0
2022-10-25T02:19:21.644Z,0
2022-10-25T02:20:21.660Z,0
2022-10-25T02:21:21.658Z,0
2022-10-25T02:22:21.661Z,0
2022-10-25T02:23:21.648Z,0
2022-10-25T02:24:21.642Z,0
2022-10-25T02:25:21.667Z,0
2022-10-25T02:26:21.642Z,0
2022-10-25T02:27:21.671Z,0
2022-10-25T02:28:21.657Z,0
2022-10-25T02:29:21.665Z,0
2022-10-25T02:30:21.668Z,0
2022-10-25T02:31:21.660Z,0
2022-10-25T02:32:21.680Z,0
2022-10-25T02:33:21.664Z,0
2022-10-25T02:34:21.661Z,0
2022-10-25T02:35:21.668Z,0
2022-10-25T02:36:21.661Z,0
2022-10-25T02:37:21.686Z,0
2022-10-25T02:38:21.657Z,0
2022-10-25T02:39:21.665Z,0
2022-10-25T02:40:21.662Z,0
2022-10-25T02:41:21.661Z,0
2022-10-25T02:42:21.739Z,0
2022-10-25T02:43:21.687Z,0
2022-10-25T02:44:21.665Z,0
2022-10-25T02:45:21.697Z,0
2022-10-25T02:46:21.660Z,0
2022-10-25T02:47:21.676Z,0
2022-10-25T02:48:21.685Z,0
2022-10-25T02:49:21.666Z,0
2022-10-25T02:50:21.662Z,0
2022-10-25T02:51:21.657Z,0
2022-10-25T02:52:21.681Z,0
2022-10-25T02:53:21.669Z,0
2022-10-25T02:54:21.666Z,0
2022-10-25T02:55:21.665Z,0
2022-10-25T02:56:21.651Z,0
2022-10-25T02:57:21.672Z,0
2022-10-25T02:58:21.658Z,0
2022-10-25T02:59:21.662Z,0
2022-10-25T03:00:21.673Z,0
2022-10-25T03:01:21.689Z,0
2022-10-25T03:02:21.691Z,0
2022-10-25T03:03:21.658Z,0
2022-10-25T03:04:21.662Z,0
2022-10-25T03:05:21.657Z,0
2022-10-25T03:06:21.647Z,0
2022-10-25T03:07:21.676Z,0
2022-10-25T03:08:21.676Z,0
2022-10-25T03:09:21.665Z,0
2022-10-25T03:10:21.664Z,0
2022-10-25T03:11:21.661Z,0
2022-10-25T03:12:21.678Z,0
2022-10-25T03:13:21.662Z,0
2022-10-25T03:14:21.660Z,0
2022-10-25T03:15:21.676Z,0
2022-10-25T03:16:21.665Z,0
2022-10-25T03:17:21.672Z,0
2022-10-25T03:18:21.660Z,0
2022-10-25T03:19:21.653Z,0
2022-10-25T03:20:21.667Z,0
2022-10-25T03:21:21.647Z,0
2022-10-25T03:22:21.667Z,0
2022-10-25T03:23:21.644Z,0
2022-10-25T03:24:21.650Z,0
2022-10-25T03:25:21.745Z,0
2022-10-25T03:26:21.648Z,0
2022-10-25T03:27:21.659Z,0
2022-10-25T03:28:21.643Z,0
2022-10-25T03:29:21.647Z,0
2022-10-25T03:30:21.672Z,0
2022-10-25T03:31:21.659Z,0
2022-10-25T03:32:21.667Z,0
2022-10-25T03:33:21.714Z,0
2022-10-25T03:34:21.649Z,0
2022-10-25T03:35:21.659Z,0
2022-10-25T03:36:21.642Z,0
2022-10-25T03:37:21.670Z,0
2022-10-25T03:38:21.647Z,0
2022-10-25T03:39:21.652Z,0
2022-10-25T03:40:21.648Z,0
2022-10-25T03:41:21.643Z,0
2022-10-25T03:42:21.675Z,0
2022-10-25T03:44:21.651Z,0
2022-10-25T03:45:21.673Z,0
2022-10-25T03:46:21.659Z,0
2022-10-25T03:47:21.692Z,0
2022-10-25T03:48:21.665Z,0
2022-10-25T03:49:21.656Z,0
2022-10-25T03:50:21.665Z,0
2022-10-25T03:51:21.660Z,0
2022-10-25T03:52:21.675Z,0
2022-10-25T03:53:21.662Z,0
2022-10-25T03:54:24.363Z,0
2022-10-25T03:55:21.649Z,0
2022-10-25T03:56:21.662Z,0
2022-10-25T03:57:21.687Z,0
2022-10-25T03:58:21.663Z,0
2022-10-25T03:59:21.668Z,0
2022-10-25T04:00:21.710Z,0
2022-10-25T04:01:21.737Z,0
2022-10-25T04:02:21.667Z,0
2022-10-25T04:03:21.659Z,0
2022-10-25T04:04:21.669Z,0
2022-10-25T04:05:21.659Z,0
2022-10-25T04:06:21.644Z,0
2022-10-25T04:07:21.675Z,0
2022-10-25T04:08:21.665Z,0
2022-10-25T04:09:21.659Z,0
2022-10-25T04:10:21.655Z,0
2022-10-25T04:11:21.653Z,0
2022-10-25T04:12:21.669Z,0
2022-10-25T04:13:21.656Z,0
2022-10-25T04:14:21.705Z,0
2022-10-25T04:15:21.674Z,0
2022-10-25T04:16:21.644Z,0
2022-10-25T04:17:21.680Z,0
2022-10-25T04:18:21.660Z,0
2022-10-25T04:19:21.661Z,0
2022-10-25T04:20:21.660Z,0
2022-10-25T04:21:21.666Z,0
2022-10-25T04:22:21.676Z,0
2022-10-25T04:23:21.664Z,0
2022-10-25T04:24:21.664Z,0
2022-10-25T04:25:21.661Z,0
2022-10-25T04:26:21.664Z,0
2022-10-25T04:27:21.674Z,0
2022-10-25T04:28:21.663Z,0
2022-10-25T04:29:21.660Z,0
2022-10-25T04:30:21.682Z,0
2022-10-25T04:31:21.662Z,0
2022-10-25T04:32:21.679Z,0
2022-10-25T04:33:21.663Z,0
2022-10-25T04:34:21.663Z,0
2022-10-25T04:35:21.662Z,0
2022-10-25T04:36:21.664Z,0
2022-10-25T04:37:21.834Z,0
2022-10-25T04:38:21.662Z,0
2022-10-25T04:39:21.669Z,0
2022-10-25T04:40:22.686Z,0
2022-10-25T04:41:21.651Z,0
2022-10-25T04:42:21.663Z,0
2022-10-25T04:43:21.644Z,0
2022-10-25T04:44:21.650Z,0
2022-10-25T04:45:21.675Z,0
2022-10-25T04:46:21.646Z,0
2022-10-25T04:47:21.660Z,0
2022-10-25T04:48:21.648Z,0
2022-10-25T04:49:21.649Z,0
2022-10-25T04:50:21.648Z,0
2022-10-25T04:51:21.645Z,0
2022-10-25T04:52:21.664Z,0
2022-10-25T04:53:21.644Z,0
2022-10-25T04:54:21.648Z,0
2022-10-25T04:55:21.645Z,0
2022-10-25T04:56:21.646Z,0
2022-10-25T04:57:21.760Z,0
2022-10-25T04:58:21.646Z,0
2022-10-25T04:59:21.647Z,0
2022-10-25T05:00:21.679Z,0
2022-10-25T05:01:21.691Z,0
2022-10-25T05:02:21.669Z,0
2022-10-25T05:03:21.692Z,0
2022-10-25T05:04:21.668Z,0
2022-10-25T05:05:21.662Z,0
2022-10-25T05:06:21.661Z,0
2022-10-25T05:07:21.671Z,0
2022-10-25T05:08:21.666Z,0
2022-10-25T05:09:21.661Z,0
2022-10-25T05:10:21.653Z,0
2022-10-25T05:11:21.664Z,0
2022-10-25T05:12:21.748Z,0
2022-10-25T05:13:21.668Z,0
2022-10-25T05:14:21.662Z,0
2022-10-25T05:15:21.676Z,0
2022-10-25T05:16:21.662Z,0
2022-10-25T05:17:21.674Z,0
2022-10-25T05:18:21.664Z,0
2022-10-25T05:19:21.658Z,0
2022-10-25T05:20:21.648Z,0
2022-10-25T05:21:21.709Z,0
2022-10-25T05:22:21.673Z,0
2022-10-25T05:23:21.663Z,0
2022-10-25T05:24:21.677Z,0
2022-10-25T05:25:21.673Z,0
2022-10-25T05:26:21.688Z,0
2022-10-25T05:27:21.673Z,0.01
2022-10-25T05:28:21.669Z,0.01
2022-10-25T05:29:21.663Z,0.01
2022-10-25T05:30:21.676Z,0.01
2022-10-25T05:31:21.665Z,0.01
2022-10-25T05:32:21.669Z,0.01
2022-10-25T05:33:21.670Z,0.02
2022-10-25T05:34:21.660Z,0.02
2022-10-25T05:35:21.658Z,0.02
2022-10-25T05:36:21.662Z,0.03
2022-10-25T05:37:21.677Z,0.03
2022-10-25T05:38:21.665Z,0.03
2022-10-25T05:39:21.660Z,0.04
2022-10-25T05:40:21.648Z,0.04
2022-10-25T05:41:21.660Z,0.05
2022-10-25T05:42:21.671Z,0.05
2022-10-25T05:43:21.665Z,0.06
2022-10-25T05:44:21.658Z,0.06
2022-10-25T05:45:21.670Z,0.07
2022-10-25T05:46:21.667Z,0.08
2022-10-25T05:47:21.677Z,0.08
2022-10-25T05:48:21.666Z,0.09
2022-10-25T05:49:21.669Z,0.09
2022-10-25T05:50:21.644Z,0.1
2022-10-25T05:51:33.048Z,0.11
2022-10-25T05:52:21.683Z,0.11
2022-10-25T05:53:21.645Z,0.12
2022-10-25T05:54:21.648Z,0.13
2022-10-25T05:55:21.642Z,0.13
2022-10-25T05:56:21.693Z,0.14
2022-10-25T05:57:21.659Z,0.15
2022-10-25T05:58:21.643Z,0.15
2022-10-25T05:59:21.716Z,0.16
2022-10-25T06:00:21.660Z,0.17
2022-10-25T06:01:21.778Z,0.18
2022-10-25T06:02:21.831Z,0.19
2022-10-25T06:03:21.647Z,0.2
2022-10-25T06:04:21.656Z,0.21
2022-10-25T06:05:21.650Z,0.23
2022-10-25T06:06:21.644Z,0.24
2022-10-25T06:07:21.665Z,0.25
2022-10-25T06:08:21.649Z,0.27
2022-10-25T06:09:21.649Z,0.27
2022-10-25T06:10:21.643Z,0.47
2022-10-25T06:11:21.669Z,0.61
2022-10-25T06:12:21.678Z,0.66
2022-10-25T06:13:21.661Z,0.69
2022-10-25T06:14:21.667Z,0.72
2022-10-25T06:15:21.672Z,0.77
2022-10-25T06:16:21.662Z,0.8
2022-10-25T06:17:21.677Z,0.82
2022-10-25T06:18:21.667Z,0.86
2022-10-25T06:19:21.660Z,0.89
2022-10-25T06:20:21.644Z,0.93
2022-10-25T06:21:21.668Z,0.95
2022-10-25T06:22:21.675Z,0.87
2022-10-25T06:23:21.662Z,0.64
2022-10-25T06:24:21.662Z,0.63
2022-10-25T06:25:21.669Z,0.96
2022-10-25T06:26:21.665Z,1.06
2022-10-25T06:27:21.671Z,1.16
2022-10-25T06:28:21.669Z,1.19
2022-10-25T06:29:21.657Z,1.21
2022-10-25T06:30:21.758Z,1.22
2022-10-25T06:31:21.669Z,1.26
2022-10-25T06:32:21.678Z,1.32
2022-10-25T06:33:24.460Z,1.41
2022-10-25T06:34:21.663Z,1.51
2022-10-25T06:35:21.660Z,1.57
2022-10-25T06:36:21.661Z,1.62
2022-10-25T06:37:21.683Z,1.68
2022-10-25T06:38:21.663Z,1.73
2022-10-25T06:39:21.655Z,1.75
2022-10-25T06:41:21.670Z,1.78
2022-10-25T06:42:21.675Z,1.84
2022-10-25T06:43:21.658Z,1.94
2022-10-25T06:44:21.673Z,1.98
2022-10-25T06:45:21.675Z,2.01
2022-10-25T06:46:21.666Z,2.06
2022-10-25T06:47:21.674Z,2.1
2022-10-25T06:48:21.669Z,2.17
2022-10-25T06:49:21.662Z,2.22
2022-10-25T06:50:21.675Z,2.31
2022-10-25T06:51:21.663Z,2.37
2022-10-25T06:52:21.675Z,2.39
2022-10-25T06:53:21.662Z,2.44
2022-10-25T06:54:21.670Z,2.52
2022-10-25T06:55:21.666Z,2.58
2022-10-25T06:56:21.653Z,2.48
2022-10-25T06:57:21.681Z,2.3
2022-10-25T06:58:21.656Z,2.25
2022-10-25T06:59:21.661Z,2.27
2022-10-25T07:00:21.686Z,2.31
2022-10-25T07:01:21.829Z,2.44
2022-10-25T07:02:21.825Z,2.71
2022-10-25T07:03:21.666Z,2.96
2022-10-25T07:04:21.661Z,3.19
2022-10-25T07:05:21.645Z,3.21
2022-10-25T07:06:21.683Z,3.24
2022-10-25T07:07:21.687Z,3.32
2022-10-25T07:08:21.648Z,3.38
2022-10-25T07:09:21.649Z,3.38
2022-10-25T07:10:21.655Z,3.51
2022-10-25T07:11:21.660Z,2.04
2022-10-25T07:12:21.671Z,2.01
2022-10-25T07:13:21.647Z,1.45
2022-10-25T07:14:21.654Z,2.64
2022-10-25T07:15:21.666Z,2.49
2022-10-25T07:16:21.658Z,1.07
2022-10-25T07:17:21.663Z,0.91
2022-10-25T07:18:21.641Z,0.82
2022-10-25T07:19:21.645Z,0.78
2022-10-25T07:20:21.675Z,0.74
2022-10-25T07:21:21.649Z,0.73
2022-10-25T07:22:21.669Z,0.69
2022-10-25T07:23:21.669Z,0.76
2022-10-25T07:24:21.656Z,0.81
2022-10-25T07:25:21.663Z,0.79
2022-10-25T07:26:21.667Z,0.82
2022-10-25T07:27:21.678Z,0.93
2022-10-25T07:28:21.667Z,1.05
2022-10-25T07:29:21.659Z,1.07
2022-10-25T07:30:21.673Z,1.05
2022-10-25T07:31:21.661Z,1.07
2022-10-25T07:32:21.673Z,1.12
2022-10-25T07:33:21.662Z,1.23
2022-10-25T07:34:21.659Z,2.79
2022-10-25T07:35:21.688Z,1.54
2022-10-25T07:36:21.751Z,2.29
2022-10-25T07:37:21.675Z,4.38
2022-10-25T07:38:25.575Z,4.41
2022-10-25T07:39:21.659Z,4.58
2022-10-25T07:40:21.654Z,4.64
2022-10-25T07:41:21.669Z,4.65
2022-10-25T07:42:21.667Z,4.68
2022-10-25T07:43:21.661Z,4.69
2022-10-25T07:44:24.944Z,4.71
2022-10-25T07:45:24.388Z,4.73
2022-10-25T07:46:21.659Z,4.77
2022-10-25T07:47:21.670Z,4.83
2022-10-25T07:48:21.659Z,4.91
2022-10-25T07:49:21.664Z,4.98
2022-10-25T07:50:21.663Z,5.01
2022-10-25T07:51:21.661Z,5.03
2022-10-25T07:52:21.675Z,5.03
2022-10-25T07:53:21.663Z,5.04
2022-10-25T07:54:21.663Z,5.08
2022-10-25T07:55:21.661Z,5.08
2022-10-25T07:56:23.681Z,3.83
2022-10-25T07:57:21.682Z,5.32
2022-10-25T07:58:21.663Z,4.57
2022-10-25T07:59:21.660Z,5.42
2022-10-25T08:00:21.729Z,5.37
2022-10-25T08:01:21.748Z,5.47
2022-10-25T08:02:24.233Z,5.16
2022-10-25T08:03:21.711Z,5.54
2022-10-25T08:04:21.683Z,5.07
2022-10-25T08:05:21.684Z,5.54
2022-10-25T08:06:21.662Z,5.84
2022-10-25T08:07:21.677Z,5.84
2022-10-25T08:08:21.668Z,5.83
2022-10-25T08:09:37.221Z,5.83
2022-10-25T08:10:21.737Z,5.6
2022-10-25T08:11:21.675Z,4.77
2022-10-25T08:12:22.641Z,5.09
2022-10-25T08:13:21.729Z,6.05
2022-10-25T08:15:21.817Z,6.04
2022-10-25T08:16:21.654Z,6.06
2022-10-25T08:17:21.666Z,6.09
2022-10-25T08:18:21.774Z,6.22
2022-10-25T08:19:21.651Z,6.38
2022-10-25T08:20:26.208Z,6.45
2022-10-25T08:21:21.654Z,6.46
2022-10-25T08:22:21.663Z,6.55
2022-10-25T08:23:21.654Z,6.56
2022-10-25T08:24:21.656Z,6.37
2022-10-25T08:25:23.562Z,6.68
2022-10-25T08:26:21.664Z,6.6
2022-10-25T08:27:21.804Z,6.21
2022-10-25T08:28:21.851Z,6.06
2022-10-25T08:29:21.650Z,5.82
2022-10-25T08:30:21.693Z,5.62
2022-10-25T08:31:21.652Z,5.52
2022-10-25T08:32:21.665Z,5.54
2022-10-25T08:33:21.649Z,5.73
2022-10-25T08:34:21.662Z,6.03
2022-10-25T08:35:21.647Z,6.49
2022-10-25T08:36:21.659Z,6.82
2022-10-25T08:37:21.679Z,6.98
2022-10-25T08:38:21.657Z,7.21
2022-10-25T08:39:21.667Z,7.43
2022-10-25T08:40:21.658Z,7.35
2022-10-25T08:41:21.663Z,7.42
2022-10-25T08:42:21.669Z,7.49
2022-10-25T08:43:21.669Z,7.58
2022-10-25T08:44:21.663Z,7.7
2022-10-25T08:45:21.676Z,7.82
2022-10-25T08:46:21.661Z,7.86
2022-10-25T08:47:21.667Z,7.9
2022-10-25T08:48:22.085Z,7.78
2022-10-25T08:49:21.667Z,7.7
2022-10-25T08:50:21.668Z,7.66
2022-10-25T08:51:21.665Z,7.66
2022-10-25T08:52:21.668Z,7.72
2022-10-25T08:53:21.892Z,7.77
2022-10-25T08:54:21.673Z,7.74
2022-10-25T08:55:21.668Z,7.75
2022-10-25T08:56:21.669Z,7.79
2022-10-25T08:57:21.722Z,7.75
2022-10-25T08:58:21.856Z,7.64
2022-10-25T08:59:21.668Z,7.65
2022-10-25T09:00:21.659Z,7.68
2022-10-25T09:01:21.762Z,7.59
2022-10-25T09:02:21.803Z,7.48
2022-10-25T09:03:22.467Z,7.61
2022-10-25T09:04:21.669Z,7.74
2022-10-25T09:05:21.666Z,7.71
2022-10-25T09:06:21.661Z,8.1
2022-10-25T09:07:21.660Z,6.66
2022-10-25T09:08:24.625Z,7.92
2022-10-25T09:09:21.664Z,7.92
2022-10-25T09:10:21.663Z,8.4
2022-10-25T09:11:21.653Z,7.96
2022-10-25T09:12:21.662Z,8
2022-10-25T09:13:22.053Z,7.94
2022-10-25T09:14:21.684Z,8.29
2022-10-25T09:15:21.704Z,8.08
2022-10-25T09:16:21.668Z,7.2
2022-10-25T09:17:21.665Z,6.37
2022-10-25T09:18:21.981Z,7.4
2022-10-25T09:19:21.668Z,7.36
2022-10-25T09:20:21.663Z,7.37
2022-10-25T09:21:22.972Z,7.48
2022-10-25T09:22:21.752Z,7.35
2022-10-25T09:24:21.994Z,8.4
2022-10-25T09:25:21.643Z,8.28
2022-10-25T09:26:21.647Z,8.18
2022-10-25T09:27:21.649Z,7.96
2022-10-25T09:28:21.883Z,7.49
2022-10-25T09:29:21.665Z,5.78
2022-10-25T09:30:21.651Z,8.09
2022-10-25T09:31:21.645Z,3.01
2022-10-25T09:32:21.646Z,7.38
2022-10-25T09:33:22.118Z,3.56
2022-10-25T09:34:21.654Z,8.14
2022-10-25T09:35:21.642Z,8.07
2022-10-25T09:36:21.648Z,8.09
2022-10-25T09:37:21.646Z,6.52
2022-10-25T09:38:22.102Z,8.27
2022-10-25T09:39:21.661Z,6.39
2022-10-25T09:40:21.702Z,8.08
2022-10-25T09:41:21.646Z,1.95
2022-10-25T09:42:21.651Z,1.71
2022-10-25T09:43:21.655Z,1.96
2022-10-25T09:44:21.685Z,1.84
2022-10-25T09:45:21.661Z,1.7
2022-10-25T09:46:21.641Z,1.46
2022-10-25T09:47:21.659Z,2.13
2022-10-25T09:48:22.012Z,2.82
2022-10-25T09:49:21.683Z,2.11
2022-10-25T09:50:21.663Z,1.69
2022-10-25T09:51:21.662Z,4.63
2022-10-25T09:52:21.656Z,5.81
2022-10-25T09:53:24.077Z,5.29
2022-10-25T09:54:21.681Z,7.25
2022-10-25T09:55:21.661Z,7.56
2022-10-25T09:56:21.663Z,7.28
2022-10-25T09:57:21.657Z,6.23
2022-10-25T09:58:21.659Z,3.35
2022-10-25T09:59:21.669Z,2.42
2022-10-25T10:00:21.660Z,3.39
2022-10-25T10:01:21.824Z,6.93
2022-10-25T10:02:21.818Z,7.27
2022-10-25T10:03:21.852Z,6.74
2022-10-25T10:04:21.651Z,6.74
2022-10-25T10:05:21.661Z,6.58
2022-10-25T10:06:21.665Z,6.31
2022-10-25T10:07:21.749Z,6.29
2022-10-25T10:08:21.660Z,6.25
2022-10-25T10:09:21.678Z,6.25
2022-10-25T10:10:21.698Z,3.59
2022-10-25T10:11:21.661Z,6.22
2022-10-25T10:12:21.664Z,6.56
2022-10-25T10:13:21.687Z,6.83
2022-10-25T10:14:21.670Z,6.98
2022-10-25T10:15:21.666Z,7.15
2022-10-25T10:16:21.689Z,2.81
2022-10-25T10:17:21.690Z,6.41
2022-10-25T10:18:21.771Z,7.21
2022-10-25T10:19:21.674Z,6.62
2022-10-25T10:20:21.669Z,3.52
2022-10-25T10:21:21.659Z,7.53
2022-10-25T10:22:21.665Z,7.46
2022-10-25T10:23:21.665Z,7.6
2022-10-25T10:24:21.679Z,3.22
2022-10-25T10:25:21.684Z,6.19
2022-10-25T10:26:21.655Z,7.35
2022-10-25T10:27:21.660Z,4.76
2022-10-25T10:28:21.656Z,7.7
2022-10-25T10:29:21.674Z,7.93
2022-10-25T10:30:21.660Z,2.16
2022-10-25T10:31:21.663Z,7.92
2022-10-25T10:32:21.653Z,5.37
2022-10-25T10:33:21.659Z,7.67
2022-10-25T10:34:21.729Z,7.46
2022-10-25T10:35:21.663Z,7.51
2022-10-25T10:36:21.661Z,7.07
2022-10-25T10:37:21.674Z,6.23
2022-10-25T10:38:21.656Z,1.47
2022-10-25T10:39:21.665Z,6.1
2022-10-25T10:40:21.654Z,1.39
2022-10-25T10:41:21.664Z,1.48
2022-10-25T10:42:21.778Z,1.51
2022-10-25T10:43:21.651Z,1.65
2022-10-25T10:44:21.657Z,1.73
2022-10-25T10:45:21.644Z,1.57
2022-10-25T10:46:21.644Z,1.31
2022-10-25T10:47:21.645Z,1.1
2022-10-25T10:48:21.647Z,1.03
2022-10-25T10:49:21.657Z,1.24
2022-10-25T10:50:21.653Z,1.56
2022-10-25T10:51:42.911Z,1.49
2022-10-25T10:53:21.647Z,1.92
2022-10-25T10:54:21.664Z,2.37
2022-10-25T10:55:21.642Z,6.51
2022-10-25T10:56:21.641Z,2.21
2022-10-25T10:57:21.645Z,2.27
2022-10-25T10:58:21.646Z,4.29
2022-10-25T10:59:21.656Z,2.63
2022-10-25T11:00:21.651Z,1.67
2022-10-25T11:01:21.752Z,1.57
2022-10-25T11:02:21.935Z,1.69
2022-10-25T11:03:21.666Z,1.86
2022-10-25T11:04:23.014Z,2.08
2022-10-25T11:05:21.657Z,2.34
2022-10-25T11:06:21.663Z,2.19
2022-10-25T11:07:21.672Z,4.75
2022-10-25T11:08:21.673Z,4.06
2022-10-25T11:09:21.678Z,4.06
2022-10-25T11:10:21.655Z,2.84
2022-10-25T11:11:21.650Z,2.08
2022-10-25T11:12:21.727Z,2.19
2022-10-25T11:13:21.837Z,2.29
2022-10-25T11:14:21.671Z,2.3
2022-10-25T11:15:21.663Z,3.25
2022-10-25T11:16:24.342Z,2.25
2022-10-25T11:17:21.656Z,1.68
2022-10-25T11:18:21.654Z,1.41
2022-10-25T11:19:21.677Z,1.23
2022-10-25T11:20:21.659Z,1.35
2022-10-25T11:21:21.658Z,1.48
2022-10-25T11:22:21.653Z,1.63
2022-10-25T11:23:21.664Z,1.71
2022-10-25T11:24:21.674Z,1.65
2022-10-25T11:25:21.665Z,1.54
2022-10-25T11:26:21.667Z,1.46
2022-10-25T11:27:21.665Z,1.4
2022-10-25T11:28:21.663Z,1.28
2022-10-25T11:29:21.681Z,1.19
2022-10-25T11:30:21.648Z,1.18
2022-10-25T11:31:21.660Z,1.18
2022-10-25T11:32:21.727Z,1.16
2022-10-25T11:33:21.668Z,1.12
2022-10-25T11:34:21.711Z,1.08
2022-10-25T11:35:21.663Z,0.98
2022-10-25T11:36:21.660Z,0.88
2022-10-25T11:37:21.658Z,0.83
2022-10-25T11:38:21.661Z,0.76
2022-10-25T11:39:21.679Z,0.7
2022-10-25T11:40:21.640Z,0.66
2022-10-25T11:41:21.661Z,0.66
2022-10-25T11:42:21.788Z,0.64
2022-10-25T11:43:21.658Z,0.63
2022-10-25T11:44:21.673Z,0.64
2022-10-25T11:45:21.669Z,0.82
2022-10-25T11:46:21.662Z,0.76
2022-10-25T11:47:21.654Z,0.76
2022-10-25T11:48:21.671Z,0.77
2022-10-25T11:49:21.666Z,1.32
2022-10-25T11:50:21.652Z,1.1
2022-10-25T11:51:21.645Z,1.5
2022-10-25T11:52:21.656Z,3.52
2022-10-25T11:53:21.655Z,2.19
2022-10-25T11:54:21.666Z,2.42
2022-10-25T11:55:21.639Z,2.46
2022-10-25T11:56:21.644Z,3.11
2022-10-25T11:57:21.659Z,2.4
2022-10-25T11:58:21.644Z,2.3
2022-10-25T11:59:21.688Z,2.15
2022-10-25T12:00:21.714Z,2.07
2022-10-25T12:01:21.737Z,2.08
2022-10-25T12:02:21.715Z,2
2022-10-25T12:03:21.644Z,1.84
2022-10-25T12:04:25.493Z,1.7
2022-10-25T12:05:21.646Z,1.66
2022-10-25T12:06:21.649Z,1.63
2022-10-25T12:07:21.648Z,1.58
2022-10-25T12:08:21.646Z,1.51
2022-10-25T12:09:21.664Z,1.51
2022-10-25T12:10:21.661Z,1.29
2022-10-25T12:11:21.647Z,1.12
2022-10-25T12:12:21.653Z,1
2022-10-25T12:13:21.662Z,0.95
2022-10-25T12:14:21.679Z,0.93
2022-10-25T12:15:21.661Z,0.92
2022-10-25T12:16:21.654Z,1.04
2022-10-25T12:17:21.662Z,1.19
2022-10-25T12:18:25.321Z,1.28
2022-10-25T12:19:21.672Z,1.31
2022-10-25T12:20:21.698Z,1.48
2022-10-25T12:21:21.664Z,1.73
2022-10-25T12:22:21.668Z,1.93
2022-10-25T12:23:21.662Z,2.25
2022-10-25T12:24:21.763Z,6.07
2022-10-25T12:25:21.664Z,4.58
2022-10-25T12:26:21.665Z,8.27
2022-10-25T12:27:21.657Z,8.6
2022-10-25T12:28:21.660Z,8.71
2022-10-25T12:29:21.671Z,8.91
2022-10-25T12:30:21.722Z,9.05
2022-10-25T12:31:21.665Z,9.21
2022-10-25T12:32:21.663Z,9.47
2022-10-25T12:33:21.659Z,9.22
2022-10-25T12:34:21.662Z,8.98
2022-10-25T12:35:21.665Z,8.63
2022-10-25T12:36:21.657Z,8.48
2022-10-25T12:37:21.684Z,2.64
2022-10-25T12:38:21.665Z,8.26
2022-10-25T12:39:21.673Z,8.46
2022-10-25T12:40:21.749Z,4.5
2022-10-25T12:41:21.659Z,2.35
2022-10-25T12:42:21.654Z,2.15
2022-10-25T12:43:21.668Z,2.23
2022-10-25T12:44:21.672Z,1.92
2022-10-25T12:45:21.661Z,1.89
2022-10-25T12:46:21.665Z,1.58
2022-10-25T12:47:21.661Z,1.3
2022-10-25T12:48:21.662Z,1.25
2022-10-25T12:49:21.673Z,1.23
2022-10-25T12:50:21.666Z,1.21
2022-10-25T12:51:21.657Z,1.19
2022-10-25T12:52:21.662Z,1.25
2022-10-25T12:53:21.661Z,1.36
2022-10-25T12:54:21.678Z,1.35
2022-10-25T12:55:21.667Z,1.24
2022-10-25T12:56:21.668Z,1.15
2022-10-25T12:57:21.664Z,1.11
2022-10-25T12:58:21.664Z,1.09
2022-10-25T12:59:21.669Z,1.07
2022-10-25T13:00:21.678Z,1.14
2022-10-25T13:01:21.719Z,1.32
2022-10-25T13:02:21.653Z,1.64
2022-10-25T13:03:21.657Z,1.54
2022-10-25T13:04:21.657Z,1.55
2022-10-25T13:05:21.643Z,1.6
2022-10-25T13:06:21.646Z,1.71
2022-10-25T13:07:21.643Z,1.75
2022-10-25T13:08:21.651Z,1.7
2022-10-25T13:09:26.086Z,1.7
2022-10-25T13:10:21.764Z,1.32
2022-10-25T13:11:21.642Z,1.1
2022-10-25T13:12:21.653Z,1.01
2022-10-25T13:13:21.663Z,1.03
2022-10-25T13:14:21.660Z,1.19
2022-10-25T13:15:21.650Z,5.12
2022-10-25T13:16:21.647Z,2.32
2022-10-25T13:17:21.645Z,6.24
2022-10-25T13:18:22.372Z,6.31
2022-10-25T13:19:25.888Z,6.28
2022-10-25T13:20:21.655Z,6.23
2022-10-25T13:21:21.663Z,6.22
2022-10-25T13:22:21.672Z,6.21
2022-10-25T13:23:21.702Z,6.25
2022-10-25T13:24:21.677Z,6.32
2022-10-25T13:25:21.665Z,6.25
2022-10-25T13:26:21.719Z,6.28
2022-10-25T13:27:21.665Z,6.35
2022-10-25T13:28:21.658Z,6.18
2022-10-25T13:29:21.665Z,6.13
2022-10-25T13:30:21.669Z,6.11
2022-10-25T13:31:21.661Z,5.92
2022-10-25T13:32:21.654Z,5.86
2022-10-25T13:33:21.782Z,5.78
2022-10-25T13:34:21.671Z,5.71
2022-10-25T13:35:21.668Z,5.62
2022-10-25T13:36:21.682Z,1.64
2022-10-25T13:37:21.662Z,5.42
2022-10-25T13:38:21.655Z,5.41
2022-10-25T13:39:21.675Z,1.49
2022-10-25T13:40:21.666Z,1.7
2022-10-25T13:41:21.670Z,3
2022-10-25T13:42:21.667Z,5.3
2022-10-25T13:43:21.669Z,5.3
2022-10-25T13:44:21.673Z,5.36
2022-10-25T13:45:21.666Z,1.36
2022-10-25T13:46:21.660Z,1.2
2022-10-25T13:47:21.666Z,1.09
2022-10-25T13:48:21.664Z,1.01
2022-10-25T13:49:21.677Z,0.97
2022-10-25T13:50:21.762Z,0.91
2022-10-25T13:51:21.656Z,0.9
2022-10-25T13:52:21.669Z,0.98
2022-10-25T13:53:21.662Z,0.82
2022-10-25T13:54:21.667Z,0.73
2022-10-25T13:55:21.666Z,0.68
2022-10-25T13:56:21.649Z,0.63
2022-10-25T13:57:21.661Z,0.6
2022-10-25T13:58:21.663Z,0.62
2022-10-25T13:59:21.682Z,0.73